Time;durP1;ratioP1;P1;durP2;ratioP2;P2;SDS_P1;SDS_P2;PMS_P1;PMS_P2;Temp;Humidity;BMP_temperature;BMP_pressure;BME280_temperature;BME280_humidity;BME280_pressure;Samples;Min_cycle;Max_cycle;Signal;HPM_P1;HPM_P2
2021/06/08 00:02:17;;;;;;;7.72;4.20;;;;;;;-145.50;100.00;65435.88;4884079;29;20091;-38
2021/06/08 00:04:43;;;;;;;7.45;4.32;;;;;;;-145.50;100.00;65435.88;4891099;29;20497;-38
2021/06/08 00:07:10;;;;;;;6.75;3.97;;;;;;;-145.50;100.00;65435.88;4885612;29;20131;-38
2021/06/08 00:09:36;;;;;;;7.07;4.40;;;;;;;-145.50;100.00;65435.88;4889561;29;20136;-38
2021/06/08 00:12:03;;;;;;;9.27;4.53;;;;;;;-145.50;100.00;65435.88;4877606;29;20141;-38
2021/06/08 00:14:30;;;;;;;9.75;4.60;;;;;;;-145.50;100.00;65435.88;4874228;29;20071;-38
2021/06/08 00:16:56;;;;;;;8.18;4.68;;;;;;;-145.50;100.00;65435.88;4892781;29;20087;-38
2021/06/08 00:19:23;;;;;;;12.00;4.78;;;;;;;-145.50;100.00;65435.88;4889224;29;20056;-38
2021/06/08 00:21:50;;;;;;;12.13;5.10;;;;;;;-145.50;100.00;65435.88;4889121;29;20140;-38
2021/06/08 00:24:16;;;;;;;7.80;5.10;;;;;;;-145.50;100.00;65435.88;4881720;29;20127;-38
2021/06/08 00:26:43;;;;;;;11.38;5.65;;;;;;;-145.50;100.00;65435.88;4890044;29;20140;-38
2021/06/08 00:29:09;;;;;;;8.00;5.05;;;;;;;-145.50;100.00;65435.88;4891955;29;20144;-38
2021/06/08 00:31:36;;;;;;;8.93;5.35;;;;;;;-145.50;100.00;65435.88;4885432;29;20087;-38
2021/06/08 00:34:03;;;;;;;8.60;5.55;;;;;;;-145.50;100.00;65435.88;4886010;29;20067;-38
2021/06/08 00:36:29;;;;;;;12.05;5.50;;;;;;;-145.50;100.00;65435.88;4888452;29;20139;-38
2021/06/08 00:38:56;;;;;;;8.05;5.47;;;;;;;-145.50;100.00;65435.88;4890788;29;20568;-38
2021/06/08 00:41:38;;;;;;;10.38;5.95;;;;;;;-145.50;100.00;65435.88;4886517;29;20052;-38
2021/06/08 00:44:06;;;;;;;8.82;5.78;;;;;;;-145.50;100.00;65435.88;4894020;29;20131;-38
2021/06/08 00:46:33;;;;;;;9.75;5.78;;;;;;;-145.50;100.00;65435.88;4890438;29;20106;-38
2021/06/08 00:49:00;;;;;;;9.57;5.82;;;;;;;-145.50;100.00;65435.88;4884199;29;20112;-38
2021/06/08 00:51:26;;;;;;;7.50;5.97;;;;;;;-145.50;100.00;65435.88;4889564;29;20092;-38
2021/06/08 00:53:53;;;;;;;10.68;6.13;;;;;;;-145.50;100.00;65435.88;4878094;29;20139;-38
2021/06/08 00:56:20;;;;;;;10.82;6.30;;;;;;;-145.50;100.00;65435.88;4892413;29;20507;-38
2021/06/08 00:58:47;;;;;;;10.15;6.38;;;;;;;-145.50;100.00;65435.88;4888584;29;20136;-38
2021/06/08 01:01:14;;;;;;;7.95;5.82;;;;;;;-145.50;100.00;65435.88;4893800;29;20084;-38
2021/06/08 01:03:40;;;;;;;11.23;6.38;;;;;;;-145.50;100.00;65435.88;4889879;29;20059;-38
2021/06/08 01:06:07;;;;;;;10.70;6.32;;;;;;;-145.50;100.00;65435.88;4883787;29;20513;-38
2021/06/08 01:08:33;;;;;;;13.70;7.05;;;;;;;-145.50;100.00;65435.88;4893971;29;20106;-38
2021/06/08 01:11:00;;;;;;;10.57;6.90;;;;;;;-145.50;100.00;65435.88;4885004;29;20095;-38
2021/06/08 01:13:29;;;;;;;11.40;6.53;;;;;;;-145.50;100.00;65435.88;4893882;29;20507;-38
2021/06/08 01:15:56;;;;;;;9.82;6.68;;;;;;;-145.50;100.00;65435.88;4884087;29;20056;-38
2021/06/08 01:18:22;;;;;;;8.88;7.18;;;;;;;-145.50;100.00;65435.88;4888551;29;20063;-38
2021/06/08 01:21:11;;;;;;;10.85;7.30;;;;;;;-145.50;100.00;65435.88;4892672;29;20370;-38
2021/06/08 01:23:38;;;;;;;10.50;7.50;;;;;;;-145.50;100.00;65435.88;4888853;29;20143;-38
2021/06/08 01:26:06;;;;;;;11.82;7.10;;;;;;;-145.50;100.00;65435.88;4887751;29;20076;-38
2021/06/08 01:28:34;;;;;;;12.17;7.90;;;;;;;-145.50;100.00;65435.88;4886618;29;20087;-38
2021/06/08 01:31:07;;;;;;;10.85;7.88;;;;;;;-145.50;100.00;65435.88;4888517;29;20322;-38
2021/06/08 01:33:39;;;;;;;13.32;7.80;;;;;;;-145.50;100.00;65435.88;4882172;29;20092;-38
2021/06/08 01:36:07;;;;;;;10.15;8.07;;;;;;;-145.50;100.00;65435.88;4892195;29;20057;-38
2021/06/08 01:38:39;;;;;;;;;;;;;;;-145.50;100.00;65435.88;4889683;29;20088;-38
2021/06/08 01:41:05;;;;;;;13.57;7.60;;;;;;;-145.50;100.00;65435.88;4890258;29;20347;-38
2021/06/08 01:43:32;;;;;;;11.77;7.78;;;;;;;-145.50;100.00;65435.88;4889013;29;20132;-38
2021/06/08 01:45:58;;;;;;;11.07;8.00;;;;;;;-145.50;100.00;65435.88;4880653;29;20099;-38
2021/06/08 01:48:25;;;;;;;14.02;8.65;;;;;;;-145.50;100.00;65435.88;4894634;29;20091;-38
2021/06/08 01:50:52;;;;;;;11.95;9.27;;;;;;;-145.50;100.00;65435.88;4887149;29;20141;-38
2021/06/08 01:53:24;;;;;;;12.27;9.23;;;;;;;-145.50;100.00;65435.88;4892461;29;20256;-38
2021/06/08 01:55:53;;;;;;;13.27;9.68;;;;;;;-145.50;100.00;65435.88;4885578;29;20152;-38
2021/06/08 01:58:37;;;;;;;14.68;10.10;;;;;;;-145.50;100.00;65435.88;4888109;29;20172;-38
2021/06/08 02:01:19;;;;;;;14.25;9.60;;;;;;;-145.50;100.00;65435.88;4882452;29;20524;-38
2021/06/08 02:04:03;;;;;;;16.52;10.10;;;;;;;-145.50;100.00;65435.88;4887094;29;20087;-38
2021/06/08 02:06:37;;;;;;;16.08;9.15;;;;;;;-145.50;100.00;65435.88;4886630;29;20087;-38
2021/06/08 02:09:22;;;;;;;15.93;10.30;;;;;;;-145.50;100.00;65435.88;4893079;29;20080;-38
2021/06/08 02:11:56;;;;;;;13.52;9.68;;;;;;;-145.50;100.00;65435.88;4890855;29;20080;-38
2021/06/08 02:14:30;;;;;;;12.20;9.63;;;;;;;-145.50;100.00;65435.88;4884791;29;20112;-38
2021/06/08 02:17:04;;;;;;;16.85;10.10;;;;;;;-145.50;100.00;65435.88;4891868;29;20215;-38
2021/06/08 02:19:32;;;;;;;13.73;9.95;;;;;;;-145.50;100.00;65435.88;4886706;29;20084;-38
2021/06/08 02:22:04;;;;;;;16.30;11.50;;;;;;;-145.50;100.00;65435.88;4883670;29;20136;-38
2021/06/08 02:24:31;;;;;;;14.82;11.32;;;;;;;-145.50;100.00;65435.88;4879806;29;20556;-38
2021/06/08 02:27:04;;;;;;;13.45;10.45;;;;;;;-145.50;100.00;65435.88;4885140;29;20132;-38
2021/06/08 02:29:32;;;;;;;17.30;11.77;;;;;;;-145.50;100.00;65435.88;4883411;29;20147;-38
2021/06/08 02:32:00;;;;;;;14.77;10.85;;;;;;;-145.50;100.00;65435.88;4892442;29;20057;-38
2021/06/08 02:34:28;;;;;;;13.75;10.45;;;;;;;-145.50;100.00;65435.88;4890462;29;20139;-38
2021/06/08 02:36:57;;;;;;;14.13;11.05;;;;;;;-145.50;100.00;65435.88;4889857;29;20084;-38
2021/06/08 02:39:24;;;;;;;16.33;11.52;;;;;;;-145.50;100.00;65435.88;4880076;29;20517;-38
2021/06/08 02:41:53;;;;;;;16.40;12.07;;;;;;;-145.50;100.00;65435.88;4877371;29;20148;-39
2021/06/08 02:44:21;;;;;;;17.38;11.35;;;;;;;-145.50;100.00;65435.88;4889665;29;20080;-38
2021/06/08 02:46:50;;;;;;;16.27;11.73;;;;;;;-145.50;100.00;65435.88;4883544;29;20139;-38
2021/06/08 02:49:20;;;;;;;18.75;12.00;;;;;;;-145.50;100.00;65435.88;4888852;29;20055;-38
2021/06/08 02:51:47;;;;;;;14.23;11.15;;;;;;;-145.50;100.00;65435.88;4891695;29;20131;-38
2021/06/08 02:54:15;;;;;;;15.60;12.27;;;;;;;-145.50;100.00;65435.88;4869430;29;20053;-38
2021/06/08 02:56:43;;;;;;;18.00;12.05;;;;;;;-145.50;100.00;65435.88;4884213;29;20053;-38
2021/06/08 02:59:11;;;;;;;16.38;12.88;;;;;;;-145.50;100.00;65435.88;4884616;29;20090;-38
2021/06/08 03:01:42;;;;;;;15.45;12.73;;;;;;;-145.50;100.00;65435.88;4886063;29;20088;-38
2021/06/08 03:04:11;;;;;;;15.55;11.85;;;;;;;-145.50;100.00;65435.88;4883217;29;20060;-38
2021/06/08 03:06:48;;;;;;;17.13;12.38;;;;;;;-145.50;100.00;65435.88;4890804;29;20135;-38
2021/06/08 03:09:16;;;;;;;20.88;12.63;;;;;;;-145.50;100.00;65435.88;4877517;29;20144;-38
2021/06/08 03:11:49;;;;;;;19.83;12.77;;;;;;;-145.50;100.00;65435.88;4891317;29;20147;-38
2021/06/08 03:14:16;;;;;;;20.58;13.48;;;;;;;-145.50;100.00;65435.88;4883009;29;20239;-38
2021/06/08 03:17:03;;;;;;;17.25;12.73;;;;;;;-145.50;100.00;65435.88;4890163;29;20152;-38
2021/06/08 03:19:32;;;;;;;18.40;14.43;;;;;;;-145.50;100.00;65435.88;4890136;29;20068;-38
2021/06/08 03:22:02;;;;;;;21.45;14.55;;;;;;;-145.50;100.00;65435.88;4880486;29;20140;-38
2021/06/08 03:24:32;;;;;;;21.42;15.25;;;;;;;-145.50;100.00;65435.88;4886522;29;20063;-38
2021/06/08 03:27:01;;;;;;;20.05;13.88;;;;;;;-145.50;100.00;65435.88;4882286;29;20139;-38
2021/06/08 03:29:31;;;;;;;21.33;13.93;;;;;;;-145.50;100.00;65435.88;4889848;29;20469;-38
2021/06/08 03:32:00;;;;;;;21.83;15.32;;;;;;;-145.50;100.00;65435.88;4882569;29;20438;-38
2021/06/08 03:34:29;;;;;;;18.67;14.10;;;;;;;-145.50;100.00;65435.88;4890141;29;20056;-38
2021/06/08 03:36:57;;;;;;;24.48;15.02;;;;;;;-145.50;100.00;65435.88;4879874;29;20052;-38
2021/06/08 03:39:24;;;;;;;18.03;13.50;;;;;;;-145.50;100.00;65435.88;4889124;29;20155;-38
2021/06/08 03:41:52;;;;;;;19.35;15.07;;;;;;;-145.50;100.00;65435.88;4891734;29;20128;-38
2021/06/08 03:44:20;;;;;;;21.52;14.48;;;;;;;-145.50;100.00;65435.88;4884457;29;20584;-38
2021/06/08 03:46:48;;;;;;;16.27;12.65;;;;;;;-145.50;100.00;65435.88;4891660;29;20080;-38
2021/06/08 03:49:17;;;;;;;24.42;14.48;;;;;;;-145.50;100.00;65435.88;4880225;29;20059;-38
2021/06/08 03:51:44;;;;;;;22.00;14.02;;;;;;;-145.50;100.00;65435.88;4889596;29;20143;-38
2021/06/08 03:54:12;;;;;;;19.70;14.20;;;;;;;-145.50;100.00;65435.88;4885587;29;20577;-38
2021/06/08 03:56:42;;;;;;;19.70;13.50;;;;;;;-145.50;100.00;65435.88;4892111;29;20091;-38
2021/06/08 03:59:11;;;;;;;21.17;15.15;;;;;;;-145.50;100.00;65435.88;4884640;29;20589;-38
2021/06/08 04:01:38;;;;;;;18.65;14.02;;;;;;;-145.50;100.00;65435.88;4895554;29;20213;-38
2021/06/08 04:04:06;;;;;;;19.30;14.05;;;;;;;-145.50;100.00;65435.88;4889201;29;20152;-38
2021/06/08 04:06:33;;;;;;;17.48;13.38;;;;;;;-145.50;100.00;65435.88;4888335;29;20084;-38
2021/06/08 04:09:05;;;;;;;21.05;14.27;;;;;;;-145.50;100.00;65435.88;4894431;29;20094;-38
2021/06/08 04:11:32;;;;;;;17.90;13.63;;;;;;;-145.50;100.00;65435.88;4885844;29;20544;-38
2021/06/08 04:13:59;;;;;;;20.13;13.98;;;;;;;-145.50;100.00;65435.88;4893481;29;20489;-38
2021/06/08 04:16:25;;;;;;;22.05;15.20;;;;;;;-145.50;100.00;65435.88;4884736;29;20108;-38
2021/06/08 04:18:52;;;;;;;23.73;15.45;;;;;;;-145.50;100.00;65435.88;4891223;29;20060;-40
2021/06/08 04:21:24;;;;;;;19.20;14.30;;;;;;;-145.50;100.00;65435.88;4886328;29;20441;-37
2021/06/08 04:23:57;;;;;;;22.45;14.10;;;;;;;-145.50;100.00;65435.88;4894237;29;20127;-37
2021/06/08 04:26:25;;;;;;;19.80;14.75;;;;;;;-145.50;100.00;65435.88;4893247;29;20654;-37
2021/06/08 04:28:52;;;;;;;21.58;15.93;;;;;;;-145.50;100.00;65435.88;4885556;29;20132;-38
2021/06/08 04:31:21;;;;;;;19.87;15.13;;;;;;;-145.50;100.00;65435.88;4886658;29;20087;-38
2021/06/08 04:33:48;;;;;;;23.05;16.23;;;;;;;-145.50;100.00;65435.88;4888008;29;20411;-38
2021/06/08 04:36:16;;;;;;;21.38;15.35;;;;;;;-145.50;100.00;65435.88;4889199;29;20052;-37
2021/06/08 04:38:42;;;;;;;20.88;14.45;;;;;;;-145.50;100.00;65435.88;4887784;29;20483;-39
2021/06/08 04:41:09;;;;;;;23.48;16.40;;;;;;;-145.50;100.00;65435.88;4891491;29;20139;-39
2021/06/08 04:43:36;;;;;;;23.98;16.75;;;;;;;-145.50;100.00;65435.88;4890478;29;20469;-39
2021/06/08 04:46:05;;;;;;;25.77;16.25;;;;;;;-145.50;100.00;65435.88;4881799;29;20147;-39
2021/06/08 04:48:33;;;;;;;20.88;15.18;;;;;;;-145.50;100.00;65435.88;4895148;29;20212;-39
2021/06/08 04:51:00;;;;;;;23.37;15.93;;;;;;;-145.50;100.00;65435.88;4887636;29;20112;-39
2021/06/08 04:53:27;;;;;;;22.60;16.90;;;;;;;-145.50;100.00;65435.88;4892530;29;20076;-39
2021/06/08 04:55:54;;;;;;;24.33;17.08;;;;;;;-145.50;100.00;65435.88;4885637;29;20171;-39
2021/06/08 04:58:21;;;;;;;25.52;16.73;;;;;;;-145.50;100.00;65435.88;4886422;29;20140;-39
2021/06/08 05:00:48;;;;;;;22.33;16.90;;;;;;;-145.50;100.00;65435.88;4885869;29;20140;-39
2021/06/08 05:03:18;;;;;;;26.05;16.08;;;;;;;-145.50;100.00;65435.88;4885228;29;20056;-39
2021/06/08 05:05:49;;;;;;;22.02;15.55;;;;;;;-145.50;100.00;65435.88;4890685;29;20091;-39
2021/06/08 05:08:22;;;;;;;25.25;16.52;;;;;;;-145.50;100.00;65435.88;4887669;29;20096;-39
2021/06/08 05:10:49;;;;;;;25.20;15.25;;;;;;;-145.50;100.00;65435.88;4893162;29;20061;-39
2021/06/08 05:13:17;;;;;;;22.92;16.75;;;;;;;-145.50;100.00;65435.88;4882005;29;20536;-39
2021/06/08 05:15:45;;;;;;;25.85;15.88;;;;;;;-145.50;100.00;65435.88;4893483;29;20166;-39
2021/06/08 05:18:14;;;;;;;25.23;14.90;;;;;;;-145.50;100.00;65435.88;4881083;29;20055;-39
2021/06/08 05:20:44;;;;;;;22.50;15.25;;;;;;;-145.50;100.00;65435.88;4886810;29;20071;-39
2021/06/08 05:23:14;;;;;;;17.40;13.77;;;;;;;-145.50;100.00;65435.88;4889786;29;20131;-39
2021/06/08 05:25:42;;;;;;;21.95;14.27;;;;;;;-145.50;100.00;65435.88;4879060;29;21554;-39
2021/06/08 05:28:13;;;;;;;32.28;17.40;;;;;;;-145.50;100.00;65435.88;4889083;29;20147;-39
2021/06/08 05:30:41;;;;;;;21.52;15.60;;;;;;;-145.50;100.00;65435.88;4884039;29;20076;-39
2021/06/08 05:33:10;;;;;;;21.15;15.88;;;;;;;-145.50;100.00;65435.88;4891727;29;20087;-39
2021/06/08 05:35:37;;;;;;;24.23;14.30;;;;;;;-145.50;100.00;65435.88;4880073;29;20095;-39
2021/06/08 05:38:07;;;;;;;26.75;14.55;;;;;;;-145.50;100.00;65435.88;4894333;29;20099;-39
2021/06/08 05:40:39;;;;;;;21.30;15.13;;;;;;;-145.50;100.00;65435.88;4880326;29;20139;-39
2021/06/08 05:43:06;;;;;;;21.95;14.65;;;;;;;-145.50;100.00;65435.88;4887638;29;20080;-39
2021/06/08 05:45:34;;;;;;;19.27;14.50;;;;;;;-145.50;100.00;65435.88;4893658;29;20091;-39
2021/06/08 05:48:01;;;;;;;;;;;;;;;-145.50;100.00;65435.88;4887474;29;20056;-39
2021/06/08 05:50:28;;;;;;;21.80;14.40;;;;;;;-145.50;100.00;65435.88;4893009;29;19966;-39
2021/06/08 05:52:55;;;;;;;25.27;13.52;;;;;;;-145.50;100.00;65435.88;4885717;29;20139;-39
2021/06/08 05:55:24;;;;;;;25.73;12.80;;;;;;;-145.50;100.00;65435.88;4888939;29;20088;-39
2021/06/08 05:57:54;;;;;;;18.65;11.73;;;;;;;-145.50;100.00;65435.88;4882924;29;20063;-39
2021/06/08 06:00:22;;;;;;;17.85;11.40;;;;;;;-145.50;100.00;65435.88;4894142;29;20092;-39
2021/06/08 06:02:51;;;;;;;18.50;11.80;;;;;;;-145.50;100.00;65435.88;4890408;29;20159;-39
2021/06/08 06:05:18;;;;;;;17.55;12.05;;;;;;;-145.50;100.00;65435.88;4885034;29;20088;-39
2021/06/08 06:07:45;;;;;;;19.00;12.02;;;;;;;-145.50;100.00;65435.88;4889336;29;20143;-39
2021/06/08 06:10:12;;;;;;;19.47;12.03;;;;;;;-145.50;100.00;65435.88;4883839;29;20052;-39
2021/06/08 06:12:40;;;;;;;19.25;13.05;;;;;;;-145.50;100.00;65435.88;4890438;29;20136;-39
2021/06/08 06:15:08;;;;;;;21.25;12.20;;;;;;;-145.50;100.00;65435.88;4886218;29;20504;-39
2021/06/08 06:17:41;;;;;;;22.63;12.63;;;;;;;-145.50;100.00;65435.88;4890788;29;20151;-39
2021/06/08 06:20:14;;;;;;;16.70;10.65;;;;;;;-145.50;100.00;65435.88;4886445;29;20544;-39
2021/06/08 06:22:41;;;;;;;17.20;12.02;;;;;;;-145.50;100.00;65435.88;4885462;29;20525;-39
2021/06/08 06:25:10;;;;;;;15.38;11.15;;;;;;;-145.50;100.00;65435.88;4890283;29;20144;-39
2021/06/08 06:27:38;;;;;;;19.27;9.90;;;;;;;-145.50;100.00;65435.88;4887031;29;20080;-39
2021/06/08 06:30:06;;;;;;;;;;;;;;;-145.50;100.00;65435.88;4885389;29;20568;-39
2021/06/08 06:32:33;;;;;;;15.27;11.32;;;;;;;-145.50;100.00;65435.88;4886488;29;20590;-39
2021/06/08 06:35:02;;;;;;;15.55;10.93;;;;;;;-145.50;100.00;65435.88;4889787;29;20080;-39
2021/06/08 06:37:29;;;;;;;16.20;10.35;;;;;;;-145.50;100.00;65435.88;4881817;29;20485;-39
2021/06/08 06:39:58;;;;;;;14.27;10.45;;;;;;;-145.50;100.00;65435.88;4888209;29;20112;-39
2021/06/08 06:42:29;;;;;;;16.98;10.43;;;;;;;-145.50;100.00;65435.88;4889708;29;20147;-38
2021/06/08 06:44:56;;;;;;;15.18;9.50;;;;;;;-145.50;100.00;65435.88;4884446;29;20540;-38
2021/06/08 06:47:23;;;;;;;12.60;7.63;;;;;;;-145.50;100.00;65435.88;4884105;29;20084;-38
2021/06/08 06:49:50;;;;;;;8.25;6.53;;;;;;;-145.50;100.00;65435.88;4879580;29;20075;-38
2021/06/08 06:52:17;;;;;;;9.88;6.15;;;;;;;-145.50;100.00;65435.88;4891403;29;20060;-38
2021/06/08 06:54:44;;;;;;;9.10;5.25;;;;;;;-145.50;100.00;65435.88;4887500;29;20151;-38
2021/06/08 06:57:11;;;;;;;9.50;5.55;;;;;;;-145.50;100.00;65435.88;4890128;29;20092;-38
2021/06/08 06:59:38;;;;;;;9.02;4.30;;;;;;;-145.50;100.00;65435.88;4891608;29;20460;-38
2021/06/08 07:02:05;;;;;;;8.38;4.43;;;;;;;-145.50;100.00;65435.88;4880069;29;20492;-38
2021/06/08 07:04:34;;;;;;;8.00;4.28;;;;;;;-145.50;100.00;65435.88;4889008;29;20522;-38
2021/06/08 07:07:01;;;;;;;;;;;;;;;-145.50;100.00;65435.88;4887254;29;20087;-38
2021/06/08 07:09:28;;;;;;;9.57;4.03;;;;;;;-145.50;100.00;65435.88;4891784;29;20029;-38
2021/06/08 07:11:55;;;;;;;7.20;4.60;;;;;;;-145.50;100.00;65435.88;4880082;29;20838;-38
2021/06/08 07:14:23;;;;;;;;;;;;;;;-145.50;100.00;65435.88;4889801;29;20104;-38
2021/06/08 07:16:51;;;;;;;10.05;5.38;;;;;;;-145.50;100.00;65435.88;4874687;29;19962;-38
2021/06/08 07:19:19;;;;;;;8.20;5.15;;;;;;;-145.50;100.00;65435.88;4887598;29;20071;-38
2021/06/08 07:21:47;;;;;;;8.65;5.10;;;;;;;-145.50;100.00;65435.88;4890202;29;20168;-38
2021/06/08 07:24:13;;;;;;;9.95;5.50;;;;;;;-145.50;100.00;65435.88;4886478;29;20604;-38
2021/06/08 07:26:40;;;;;;;10.45;5.45;;;;;;;-145.50;100.00;65435.88;4889334;29;20544;-38
2021/06/08 07:29:12;;;;;;;10.50;6.30;;;;;;;-145.50;100.00;65435.88;4882965;29;20139;-38
2021/06/08 07:31:49;;;;;;;9.18;6.07;;;;;;;-145.50;100.00;65435.88;4885745;29;20163;-38
2021/06/08 07:34:31;;;;;;;10.10;5.03;;;;;;;-145.50;100.00;65435.88;4877804;29;20473;-38
2021/06/08 07:36:58;;;;;;;8.07;5.07;;;;;;;-145.50;100.00;65435.88;4889975;29;20096;-38
2021/06/08 07:39:46;;;;;;;10.23;6.75;;;;;;;-145.50;100.00;65435.88;4887718;29;20110;-38
2021/06/08 07:42:28;;;;;;;9.43;6.15;;;;;;;-145.50;100.00;65435.88;4886887;29;20721;-38
2021/06/08 07:45:06;;;;;;;10.00;6.00;;;;;;;-145.50;100.00;65435.88;4887972;29;20151;-38
2021/06/08 07:47:35;;;;;;;9.88;6.68;;;;;;;-145.50;100.00;65435.88;4887393;29;20079;-38
2021/06/08 07:50:06;;;;;;;10.65;6.07;;;;;;;-145.50;100.00;65435.88;4886450;29;20164;-38
2021/06/08 07:52:33;;;;;;;9.82;5.97;;;;;;;-145.50;100.00;65435.88;4883881;29;20458;-39
2021/06/08 07:55:00;;;;;;;8.00;5.32;;;;;;;-145.50;100.00;65435.88;4891307;29;20151;-38
2021/06/08 07:57:27;;;;;;;8.55;4.78;;;;;;;-145.50;100.00;65435.88;4881935;29;20167;-38
2021/06/08 08:00:08;;;;;;;9.95;4.97;;;;;;;-145.50;100.00;65435.88;4888687;29;20155;-38
2021/06/08 08:02:35;;;;;;;10.43;5.20;;;;;;;-145.50;100.00;65435.88;4881766;29;20061;-38
2021/06/08 08:05:08;;;;;;;10.10;5.60;;;;;;;-145.50;100.00;65435.88;4890326;29;20131;-38
2021/06/08 08:07:35;;;;;;;10.30;5.40;;;;;;;-145.50;100.00;65435.88;4891173;29;20187;-38
2021/06/08 08:10:02;;;;;;;8.00;4.95;;;;;;;-145.50;100.00;65435.88;4881459;29;20140;-38
2021/06/08 08:12:35;;;;;;;8.93;5.22;;;;;;;-145.50;100.00;65435.88;4889524;29;20084;-38
2021/06/08 08:15:04;;;;;;;7.55;4.65;;;;;;;-145.50;100.00;65435.88;4885289;29;20058;-38
2021/06/08 08:17:32;;;;;;;5.47;4.07;;;;;;;-145.50;100.00;65435.88;4890612;29;20090;-38
2021/06/08 08:20:00;;;;;;;8.00;4.90;;;;;;;-145.50;100.00;65435.88;4883493;29;20111;-38
2021/06/08 08:22:27;;;;;;;7.80;4.93;;;;;;;-145.50;100.00;65435.88;4886144;29;20447;-38
2021/06/08 08:24:53;;;;;;;10.75;4.95;;;;;;;-145.50;100.00;65435.88;4884284;29;20157;-38
2021/06/08 08:27:20;;;;;;;8.48;5.25;;;;;;;-145.50;100.00;65435.88;4890698;29;20446;-38
2021/06/08 08:29:46;;;;;;;7.68;5.03;;;;;;;-145.50;100.00;65435.88;4891621;29;20072;-39
2021/06/08 08:32:14;;;;;;;8.10;4.65;;;;;;;-145.50;100.00;65435.88;4880391;29;20087;-38
2021/06/08 08:34:42;;;;;;;10.80;4.88;;;;;;;-145.50;100.00;65435.88;4889713;29;20127;-38
2021/06/08 08:37:10;;;;;;;6.90;4.70;;;;;;;-145.50;100.00;65435.88;4884893;29;20075;-38
2021/06/08 08:39:36;;;;;;;8.07;4.77;;;;;;;-145.50;100.00;65435.88;4893886;29;20473;-38
2021/06/08 08:42:05;;;;;;;6.57;4.57;;;;;;;-145.50;100.00;65435.88;4886503;29;20103;-38
2021/06/08 08:44:32;;;;;;;9.27;5.03;;;;;;;-145.50;100.00;65435.88;4890352;29;20091;-38
2021/06/08 08:46:58;;;;;;;7.57;5.18;;;;;;;-145.50;100.00;65435.88;4887072;29;20049;-39
2021/06/08 08:49:28;;;;;;;8.77;5.20;;;;;;;-145.50;100.00;65435.88;4887861;29;20084;-39
2021/06/08 08:51:56;;;;;;;11.15;5.28;;;;;;;-145.50;100.00;65435.88;4892037;29;20072;-39
2021/06/08 08:54:24;;;;;;;8.15;5.18;;;;;;;-145.50;100.00;65435.88;4885126;29;20105;-39
2021/06/08 08:56:51;;;;;;;9.30;5.03;;;;;;;-145.50;100.00;65435.88;4893458;29;20087;-38
2021/06/08 08:59:19;;;;;;;9.70;5.00;;;;;;;-145.50;100.00;65435.88;4885642;29;20094;-38
2021/06/08 09:01:47;;;;;;;9.43;5.53;;;;;;;-145.50;100.00;65435.88;4888248;29;20090;-38
2021/06/08 09:04:14;;;;;;;8.30;5.10;;;;;;;-145.50;100.00;65435.88;4891342;29;20230;-37
2021/06/08 09:06:41;;;;;;;7.20;5.00;;;;;;;-145.50;100.00;65435.88;4887492;29;20052;-38
2021/06/08 09:09:10;;;;;;;7.32;5.68;;;;;;;-145.50;100.00;65435.88;4894002;29;20143;-38
2021/06/08 09:11:42;;;;;;;9.32;5.50;;;;;;;-145.50;100.00;65435.88;4886227;29;20088;-38
2021/06/08 09:14:11;;;;;;;8.52;6.47;;;;;;;-145.50;100.00;65435.88;4890202;29;20075;-38
2021/06/08 09:16:38;;;;;;;9.98;6.25;;;;;;;-145.50;100.00;65435.88;4884249;29;20475;-39
2021/06/08 09:19:09;;;;;;;10.15;7.78;;;;;;;-145.50;100.00;65435.88;4891817;29;20474;-39
2021/06/08 09:21:40;;;;;;;12.07;6.90;;;;;;;-145.50;100.00;65435.88;4886833;29;20088;-39
2021/06/08 09:24:29;;;;;;;10.32;7.60;;;;;;;-145.50;100.00;65435.88;4890006;29;20087;-39
2021/06/08 09:27:07;;;;;;;11.63;7.68;;;;;;;-145.50;100.00;65435.88;4890873;29;20136;-39
2021/06/08 09:29:36;;;;;;;11.48;7.93;;;;;;;-145.50;100.00;65435.88;4882851;29;20086;-38
2021/06/08 09:32:20;;;;;;;9.35;7.78;;;;;;;-145.50;100.00;65435.88;4892080;29;20060;-38
2021/06/08 09:34:55;;;;;;;10.35;6.97;;;;;;;-145.50;100.00;65435.88;4884612;29;20082;-38
2021/06/08 09:37:51;;;;;;;9.38;7.32;;;;;;;-145.50;100.00;65435.88;4894638;29;20803;-38
2021/06/08 09:40:23;;;;;;;7.95;6.82;;;;;;;-145.50;100.00;65435.88;4879517;29;20475;-38
2021/06/08 09:43:05;;;;;;;12.55;8.50;;;;;;;-145.50;100.00;65435.88;4887407;29;20540;-38
2021/06/08 09:45:45;;;;;;;8.38;7.00;;;;;;;-145.50;100.00;65435.88;4884316;29;20814;-38
2021/06/08 09:48:13;;;;;;;9.48;7.25;;;;;;;-145.50;100.00;65435.88;4887860;29;20147;-38
2021/06/08 09:50:42;;;;;;;8.07;6.53;;;;;;;-145.50;100.00;65435.88;4885182;29;20064;-38
2021/06/08 09:53:16;;;;;;;9.93;7.03;;;;;;;-145.50;100.00;65435.88;4890938;29;20528;-38
2021/06/08 09:56:02;;;;;;;9.82;6.97;;;;;;;-145.50;100.00;65435.88;4880553;29;20509;-37
2021/06/08 09:58:30;;;;;;;9.95;7.90;;;;;;;-145.50;100.00;65435.88;4884258;29;20053;-37
2021/06/08 10:01:20;;;;;;;7.22;6.05;;;;;;;-145.50;100.00;65435.88;4887147;29;20127;-38
2021/06/08 10:03:48;;;;;;;8.07;6.22;;;;;;;-145.50;100.00;65435.88;4893222;29;20052;-38
2021/06/08 10:06:17;;;;;;;9.80;7.18;;;;;;;-145.50;100.00;65435.88;4892414;29;20056;-38
2021/06/08 10:09:03;;;;;;;9.73;7.15;;;;;;;-145.50;100.00;65435.88;4886133;29;20143;-38
2021/06/08 10:11:40;;;;;;;9.57;7.00;;;;;;;-145.50;100.00;65435.88;4886422;29;20165;-38
2021/06/08 10:14:19;;;;;;;9.15;7.25;;;;;;;-145.50;100.00;65435.88;4886044;29;20075;-38
2021/06/08 10:16:58;;;;;;;9.88;7.65;;;;;;;-145.50;100.00;65435.88;4890031;29;20052;-38
2021/06/08 10:19:26;;;;;;;10.98;8.85;;;;;;;-145.50;100.00;65435.88;4887482;29;20049;-38
2021/06/08 10:21:54;;;;;;;10.32;7.97;;;;;;;-145.50;100.00;65435.88;4890910;29;20136;-38
2021/06/08 10:24:23;;;;;;;12.50;8.13;;;;;;;-145.50;100.00;65435.88;4880997;29;20144;-38
2021/06/08 10:26:55;;;;;;;11.38;8.95;;;;;;;-145.50;100.00;65435.88;4884644;29;20487;-38
2021/06/08 10:29:27;;;;;;;9.77;5.80;;;;;;;-145.50;100.00;65435.88;4884790;29;20477;-38
2021/06/08 10:31:55;;;;;;;8.23;6.03;;;;;;;-145.50;100.00;65435.88;4891204;29;20139;-38
2021/06/08 10:34:37;;;;;;;9.02;6.82;;;;;;;-145.50;100.00;65435.88;4888877;29;20083;-38
2021/06/08 10:37:04;;;;;;;7.65;5.45;;;;;;;-145.50;100.00;65435.88;4884740;29;20060;-38
2021/06/08 10:39:31;;;;;;;8.90;6.10;;;;;;;-145.50;100.00;65435.88;4890009;29;20079;-38
2021/06/08 10:41:58;;;;;;;10.75;8.27;;;;;;;-145.50;100.00;65435.88;4883661;29;20151;-38
2021/06/08 10:44:28;;;;;;;8.95;7.15;;;;;;;-145.50;100.00;65435.88;4893061;29;20084;-38
2021/06/08 10:47:06;;;;;;;9.70;7.35;;;;;;;-145.50;100.00;65435.88;4884907;29;20101;-38
2021/06/08 10:49:39;;;;;;;11.52;8.80;;;;;;;-145.50;100.00;65435.88;4887065;29;20095;-38
2021/06/08 10:52:15;;;;;;;10.60;7.40;;;;;;;-145.50;100.00;65435.88;4881075;29;20090;-38
2021/06/08 10:54:50;;;;;;;11.25;8.38;;;;;;;-145.50;100.00;65435.88;4890599;29;20052;-38
2021/06/08 10:57:17;;;;;;;10.40;7.75;;;;;;;-145.50;100.00;65435.88;4888215;29;20091;-38
2021/06/08 10:59:45;;;;;;;9.27;7.03;;;;;;;-145.50;100.00;65435.88;4884370;29;20052;-38
2021/06/08 11:02:33;;;;;;;9.45;7.05;;;;;;;-145.50;100.00;65435.88;4884666;29;20056;-38
2021/06/08 11:05:00;;;;;;;8.27;6.55;;;;;;;-145.50;100.00;65435.88;4879759;29;20521;-38
2021/06/08 11:07:46;;;;;;;10.65;6.97;;;;;;;-145.50;100.00;65435.88;4892874;29;20087;-38
2021/06/08 11:10:25;;;;;;;8.30;7.00;;;;;;;-145.50;100.00;65435.88;4883972;29;20060;-37
2021/06/08 11:13:10;;;;;;;9.27;6.40;;;;;;;-145.50;100.00;65435.88;4891764;29;20136;-37
2021/06/08 11:15:39;;;;;;;9.40;6.13;;;;;;;-145.50;100.00;65435.88;4881161;29;20493;-37